Terminal Aerodrome Forecast
Issued by NWS Wilmington, NC

Home | Current Version | Previous Version | Text Only | Print | Product List | Glossary On
Versions: 1 2 3 4 5 6 7 8 9 10 11 12 13 14 15 16 17 18 19 20 21 22 23 24 25
835
FTUS42 KILM 232327
TAFLBT
TAF
KLBT 232327Z 2400/2424 05005KT P6SM FEW250
     FM240900 03004KT 2SM BR SCT007
     FM241300 04006KT P6SM FEW200
     FM242000 04009KT P6SM FEW040
      AMD NOT SKED=

USA.gov is the U.S. government's official web portal to all federal, state and local government web resources and services.